sensor_id;sensor_type;location;lat;lon;timestamp;pressure;altitude;pressure_sealevel;temperature;humidity
77823;BME280;67013;49.730;17.292;2023-05-10T00:00:53;98364.06;;;12.18;42.86
77823;BME280;67013;49.730;17.292;2023-05-10T00:03:23;98360.54;;;12.17;42.70
77823;BME280;67013;49.730;17.292;2023-05-10T00:05:52;98356.83;;;12.16;42.91
77823;BME280;67013;49.730;17.292;2023-05-10T00:08:22;98357.42;;;12.15;43.10
77823;BME280;67013;49.730;17.292;2023-05-10T00:10:51;98355.06;;;12.14;42.93
77823;BME280;67013;49.730;17.292;2023-05-10T00:13:21;98349.59;;;12.12;43.08
77823;BME280;67013;49.730;17.292;2023-05-10T00:15:50;98349.13;;;12.12;43.06
77823;BME280;67013;49.730;17.292;2023-05-10T00:18:20;98351.29;;;12.11;43.23
77823;BME280;67013;49.730;17.292;2023-05-10T00:20:50;98352.25;;;12.09;43.23
77823;BME280;67013;49.730;17.292;2023-05-10T00:23:19;98346.80;;;12.08;43.21
77823;BME280;67013;49.730;17.292;2023-05-10T00:25:48;98341.17;;;12.06;43.26
77823;BME280;67013;49.730;17.292;2023-05-10T00:28:22;98340.25;;;12.04;43.28
77823;BME280;67013;49.730;17.292;2023-05-10T00:30:52;98337.77;;;12.03;43.46
77823;BME280;67013;49.730;17.292;2023-05-10T00:33:21;98338.66;;;12.00;43.45
77823;BME280;67013;49.730;17.292;2023-05-10T00:35:51;98337.23;;;11.98;43.59
77823;BME280;67013;49.730;17.292;2023-05-10T00:38:20;98337.77;;;11.96;43.38
77823;BME280;67013;49.730;17.292;2023-05-10T00:40:50;98335.08;;;11.95;43.64
77823;BME280;67013;49.730;17.292;2023-05-10T00:43:19;98329.67;;;11.92;43.80
77823;BME280;67013;49.730;17.292;2023-05-10T00:45:49;98324.29;;;11.90;43.64
77823;BME280;67013;49.730;17.292;2023-05-10T00:48:19;98324.25;;;11.88;43.75
77823;BME280;67013;49.730;17.292;2023-05-10T00:50:49;98325.38;;;11.87;43.88
77823;BME280;67013;49.730;17.292;2023-05-10T00:53:18;98322.94;;;11.86;43.88
77823;BME280;67013;49.730;17.292;2023-05-10T00:55:48;98322.30;;;11.85;43.76
77823;BME280;67013;49.730;17.292;2023-05-10T00:58:19;98316.88;;;11.83;43.89
77823;BME280;67013;49.730;17.292;2023-05-10T01:00:48;98317.48;;;11.82;43.83
77823;BME280;67013;49.730;17.292;2023-05-10T01:03:19;98314.14;;;11.80;43.88
77823;BME280;67013;49.730;17.292;2023-05-10T01:05:48;98315.66;;;11.78;43.95
77823;BME280;67013;49.730;17.292;2023-05-10T01:08:18;98311.35;;;11.78;44.26
77823;BME280;67013;49.730;17.292;2023-05-10T01:10:48;98311.35;;;11.75;44.27
77823;BME280;67013;49.730;17.292;2023-05-10T01:13:31;98311.25;;;11.74;44.39
77823;BME280;67013;49.730;17.292;2023-05-10T01:16:02;98305.82;;;11.73;44.20
77823;BME280;67013;49.730;17.292;2023-05-10T01:18:34;98303.70;;;11.71;44.36
77823;BME280;67013;49.730;17.292;2023-05-10T01:21:14;98298.45;;;11.69;44.46
77823;BME280;67013;49.730;17.292;2023-05-10T01:24:06;98297.33;;;11.68;44.40
77823;BME280;67013;49.730;17.292;2023-05-10T01:27:11;98296.06;;;11.66;44.41
77823;BME280;67013;49.730;17.292;2023-05-10T01:30:07;98299.89;;;11.64;44.57
77823;BME280;67013;49.730;17.292;2023-05-10T01:32:42;98297.91;;;11.62;44.75
77823;BME280;67013;49.730;17.292;2023-05-10T01:35:17;98296.94;;;11.61;44.74
77823;BME280;67013;49.730;17.292;2023-05-10T01:37:52;98294.90;;;11.61;44.86
77823;BME280;67013;49.730;17.292;2023-05-10T01:40:26;98291.69;;;11.59;44.83
77823;BME280;67013;49.730;17.292;2023-05-10T01:43:02;98288.98;;;11.58;45.10
77823;BME280;67013;49.730;17.292;2023-05-10T01:45:39;98287.14;;;11.57;45.16
77823;BME280;67013;49.730;17.292;2023-05-10T01:48:12;98287.20;;;11.57;45.50
77823;BME280;67013;49.730;17.292;2023-05-10T01:50:45;98290.69;;;11.57;45.29
77823;BME280;67013;49.730;17.292;2023-05-10T01:53:18;98286.06;;;11.56;45.40
77823;BME280;67013;49.730;17.292;2023-05-10T01:55:51;98288.39;;;11.55;45.52
77823;BME280;67013;49.730;17.292;2023-05-10T01:58:24;98286.20;;;11.54;45.71
77823;BME280;67013;49.730;17.292;2023-05-10T02:00:57;98286.20;;;11.54;45.81
77823;BME280;67013;49.730;17.292;2023-05-10T02:03:28;98289.23;;;11.53;45.65
77823;BME280;67013;49.730;17.292;2023-05-10T02:06:00;98282.66;;;11.53;45.85
77823;BME280;67013;49.730;17.292;2023-05-10T02:08:31;98281.16;;;11.52;46.12
77823;BME280;67013;49.730;17.292;2023-05-10T02:11:02;98282.09;;;11.51;46.12
77823;BME280;67013;49.730;17.292;2023-05-10T02:13:35;98279.86;;;11.51;46.40
77823;BME280;67013;49.730;17.292;2023-05-10T02:16:08;98280.75;;;11.50;46.54
77823;BME280;67013;49.730;17.292;2023-05-10T02:18:38;98279.98;;;11.51;46.49
77823;BME280;67013;49.730;17.292;2023-05-10T02:21:11;98280.33;;;11.51;46.50
77823;BME280;67013;49.730;17.292;2023-05-10T02:23:43;98277.91;;;11.51;46.68
77823;BME280;67013;49.730;17.292;2023-05-10T02:26:15;98278.14;;;11.50;47.16
77823;BME280;67013;49.730;17.292;2023-05-10T02:28:46;98272.80;;;11.50;47.12
77823;BME280;67013;49.730;17.292;2023-05-10T02:31:16;98274.80;;;11.49;47.19
77823;BME280;67013;49.730;17.292;2023-05-10T02:33:47;98278.71;;;11.48;47.38
77823;BME280;67013;49.730;17.292;2023-05-10T02:36:17;98278.79;;;11.47;47.53
77823;BME280;67013;49.730;17.292;2023-05-10T02:38:47;98279.52;;;11.46;47.61
77823;BME280;67013;49.730;17.292;2023-05-10T02:41:32;98277.64;;;11.43;47.81
77823;BME280;67013;49.730;17.292;2023-05-10T02:44:04;98277.23;;;11.42;47.86
77823;BME280;67013;49.730;17.292;2023-05-10T02:46:36;98278.92;;;11.41;47.92
77823;BME280;67013;49.730;17.292;2023-05-10T02:49:06;98275.38;;;11.39;48.11
77823;BME280;67013;49.730;17.292;2023-05-10T02:51:39;98275.66;;;11.38;48.31
77823;BME280;67013;49.730;17.292;2023-05-10T02:54:12;98268.52;;;11.36;48.19
77823;BME280;67013;49.730;17.292;2023-05-10T02:56:50;98273.85;;;11.34;48.33
77823;BME280;67013;49.730;17.292;2023-05-10T02:59:20;98269.95;;;11.33;48.67
77823;BME280;67013;49.730;17.292;2023-05-10T03:01:49;98270.66;;;11.30;48.51
77823;BME280;67013;49.730;17.292;2023-05-10T03:04:19;98270.02;;;11.27;48.81
77823;BME280;67013;49.730;17.292;2023-05-10T03:06:49;98271.80;;;11.24;48.85
77823;BME280;67013;49.730;17.292;2023-05-10T03:09:19;98266.63;;;11.22;48.93
77823;BME280;67013;49.730;17.292;2023-05-10T03:11:55;98268.13;;;11.18;49.27
77823;BME280;67013;49.730;17.292;2023-05-10T03:14:42;98266.30;;;11.14;49.35
77823;BME280;67013;49.730;17.292;2023-05-10T03:17:17;98265.93;;;11.10;49.21
77823;BME280;67013;49.730;17.292;2023-05-10T03:19:53;98263.48;;;11.08;49.34
77823;BME280;67013;49.730;17.292;2023-05-10T03:22:26;98262.58;;;11.07;49.32
77823;BME280;67013;49.730;17.292;2023-05-10T03:25:03;98261.88;;;11.04;49.46
77823;BME280;67013;49.730;17.292;2023-05-10T03:27:35;98261.26;;;11.03;49.49
77823;BME280;67013;49.730;17.292;2023-05-10T03:30:08;98257.89;;;11.02;49.48
77823;BME280;67013;49.730;17.292;2023-05-10T03:32:38;98256.84;;;11.00;49.84
77823;BME280;67013;49.730;17.292;2023-05-10T03:35:09;98256.34;;;10.99;49.79
77823;BME280;67013;49.730;17.292;2023-05-10T03:37:39;98251.95;;;11.00;49.80
77823;BME280;67013;49.730;17.292;2023-05-10T03:40:10;98251.55;;;11.01;49.83
77823;BME280;67013;49.730;17.292;2023-05-10T03:42:39;98249.60;;;11.01;49.85
77823;BME280;67013;49.730;17.292;2023-05-10T03:45:11;98250.84;;;11.01;49.96
77823;BME280;67013;49.730;17.292;2023-05-10T03:47:40;98253.20;;;11.01;50.02
77823;BME280;67013;49.730;17.292;2023-05-10T03:50:10;98249.23;;;11.01;49.73
77823;BME280;67013;49.730;17.292;2023-05-10T03:52:40;98254.56;;;11.02;49.88
77823;BME280;67013;49.730;17.292;2023-05-10T03:55:10;98248.14;;;11.04;49.86
77823;BME280;67013;49.730;17.292;2023-05-10T03:57:39;98252.89;;;11.06;49.89
77823;BME280;67013;49.730;17.292;2023-05-10T04:00:11;98249.73;;;11.22;49.76
77823;BME280;67013;49.730;17.292;2023-05-10T04:02:40;98248.05;;;12.11;48.66
77823;BME280;67013;49.730;17.292;2023-05-10T04:05:11;98250.42;;;13.26;46.38
77823;BME280;67013;49.730;17.292;2023-05-10T04:07:40;98241.31;;;14.37;44.36
77823;BME280;67013;49.730;17.292;2023-05-10T04:10:11;98245.08;;;15.47;42.72
77823;BME280;67013;49.730;17.292;2023-05-10T04:12:40;98242.26;;;16.53;39.93
77823;BME280;67013;49.730;17.292;2023-05-10T04:15:11;98241.16;;;17.50;38.66
77823;BME280;67013;49.730;17.292;2023-05-10T04:17:40;98238.67;;;18.53;36.60
77823;BME280;67013;49.730;17.292;2023-05-10T04:20:12;98238.32;;;19.45;35.16
77823;BME280;67013;49.730;17.292;2023-05-10T04:22:39;98241.64;;;20.50;33.66
77823;BME280;67013;49.730;17.292;2023-05-10T04:25:10;98248.31;;;21.37;31.72
77823;BME280;67013;49.730;17.292;2023-05-10T04:27:39;98245.89;;;22.13;30.51
77823;BME280;67013;49.730;17.292;2023-05-10T04:30:11;98247.98;;;23.05;30.11
77823;BME280;67013;49.730;17.292;2023-05-10T04:32:40;98248.53;;;24.11;28.49
77823;BME280;67013;49.730;17.292;2023-05-10T04:35:10;98254.66;;;25.05;27.62
77823;BME280;67013;49.730;17.292;2023-05-10T04:37:40;98256.52;;;26.03;26.37
77823;BME280;67013;49.730;17.292;2023-05-10T04:40:11;98253.12;;;26.88;24.78
77823;BME280;67013;49.730;17.292;2023-05-10T04:42:42;98256.14;;;27.58;23.89
77823;BME280;67013;49.730;17.292;2023-05-10T04:45:13;98257.79;;;28.29;23.22
77823;BME280;67013;49.730;17.292;2023-05-10T04:47:42;98260.77;;;28.90;22.41
77823;BME280;67013;49.730;17.292;2023-05-10T04:50:12;98262.35;;;29.51;21.90
77823;BME280;67013;49.730;17.292;2023-05-10T04:52:41;98267.27;;;30.24;21.04
77823;BME280;67013;49.730;17.292;2023-05-10T04:55:11;98263.27;;;30.84;20.43
77823;BME280;67013;49.730;17.292;2023-05-10T04:57:41;98265.14;;;31.52;20.02
77823;BME280;67013;49.730;17.292;2023-05-10T05:00:13;98270.58;;;32.23;19.48
77823;BME280;67013;49.730;17.292;2023-05-10T05:02:45;98267.43;;;32.93;18.81
77823;BME280;67013;49.730;17.292;2023-05-10T05:05:15;98270.29;;;33.50;18.11
77823;BME280;67013;49.730;17.292;2023-05-10T05:07:44;98270.27;;;34.02;17.81
77823;BME280;67013;49.730;17.292;2023-05-10T05:10:14;98269.95;;;34.59;17.64
77823;BME280;67013;49.730;17.292;2023-05-10T05:12:43;98269.23;;;35.06;17.09
77823;BME280;67013;49.730;17.292;2023-05-10T05:15:13;98275.23;;;34.70;17.38
77823;BME280;67013;49.730;17.292;2023-05-10T05:17:44;98270.86;;;34.47;17.49
77823;BME280;67013;49.730;17.292;2023-05-10T05:20:14;98271.27;;;34.38;17.27
77823;BME280;67013;49.730;17.292;2023-05-10T05:22:44;98266.69;;;33.88;17.56
77823;BME280;67013;49.730;17.292;2023-05-10T05:25:13;98264.27;;;32.51;18.36
77823;BME280;67013;49.730;17.292;2023-05-10T05:27:43;98267.62;;;31.67;19.24
77823;BME280;67013;49.730;17.292;2023-05-10T05:30:13;98266.91;;;31.87;19.30
77823;BME280;67013;49.730;17.292;2023-05-10T05:32:42;98266.38;;;32.19;19.10
77823;BME280;67013;49.730;17.292;2023-05-10T05:35:12;98262.62;;;32.40;18.78
77823;BME280;67013;49.730;17.292;2023-05-10T05:37:41;98263.67;;;32.27;18.79
77823;BME280;67013;49.730;17.292;2023-05-10T05:40:13;98263.27;;;31.64;19.10
77823;BME280;67013;49.730;17.292;2023-05-10T05:42:43;98256.44;;;31.39;19.49
77823;BME280;67013;49.730;17.292;2023-05-10T05:45:13;98266.00;;;31.44;19.33
77823;BME280;67013;49.730;17.292;2023-05-10T05:47:42;98264.95;;;31.20;19.40
77823;BME280;67013;49.730;17.292;2023-05-10T05:50:12;98266.38;;;31.29;19.59
77823;BME280;67013;49.730;17.292;2023-05-10T05:52:42;98264.86;;;31.75;19.52
77823;BME280;67013;49.730;17.292;2023-05-10T05:55:11;98271.18;;;32.14;19.28
77823;BME280;67013;49.730;17.292;2023-05-10T05:57:41;98270.32;;;31.61;19.40
77823;BME280;67013;49.730;17.292;2023-05-10T06:00:12;98268.89;;;31.04;19.87
77823;BME280;67013;49.730;17.292;2023-05-10T06:02:42;98274.48;;;31.38;19.60
77823;BME280;67013;49.730;17.292;2023-05-10T06:05:11;98271.89;;;31.67;19.44
77823;BME280;67013;49.730;17.292;2023-05-10T06:07:42;98274.40;;;31.82;19.37
77823;BME280;67013;49.730;17.292;2023-05-10T06:10:11;98275.58;;;31.77;19.27
77823;BME280;67013;49.730;17.292;2023-05-10T06:12:41;98271.20;;;31.65;19.20
77823;BME280;67013;49.730;17.292;2023-05-10T06:15:11;98269.45;;;31.73;19.27
77823;BME280;67013;49.730;17.292;2023-05-10T06:17:41;98276.23;;;31.89;19.40
77823;BME280;67013;49.730;17.292;2023-05-10T06:20:13;98271.98;;;32.09;19.16
77823;BME280;67013;49.730;17.292;2023-05-10T06:22:42;98275.10;;;32.26;19.12
77823;BME280;67013;49.730;17.292;2023-05-10T06:25:13;98285.85;;;32.41;18.83
77823;BME280;67013;49.730;17.292;2023-05-10T06:27:42;98274.27;;;32.43;18.84
77823;BME280;67013;49.730;17.292;2023-05-10T06:30:13;98277.45;;;32.32;19.09
77823;BME280;67013;49.730;17.292;2023-05-10T06:32:43;98272.96;;;32.48;19.08
77823;BME280;67013;49.730;17.292;2023-05-10T06:35:13;98274.67;;;32.64;18.66
77823;BME280;67013;49.730;17.292;2023-05-10T06:37:42;98275.96;;;32.45;18.78
77823;BME280;67013;49.730;17.292;2023-05-10T06:40:12;98273.71;;;32.53;19.01
77823;BME280;67013;49.730;17.292;2023-05-10T06:42:42;98278.98;;;32.73;18.87
77823;BME280;67013;49.730;17.292;2023-05-10T06:45:13;98285.80;;;32.98;18.58
77823;BME280;67013;49.730;17.292;2023-05-10T06:47:42;98284.70;;;32.95;18.30
77823;BME280;67013;49.730;17.292;2023-05-10T06:50:11;98286.91;;;32.62;18.51
77823;BME280;67013;49.730;17.292;2023-05-10T06:52:41;98293.27;;;32.32;18.81
77823;BME280;67013;49.730;17.292;2023-05-10T06:55:11;98291.83;;;31.91;19.37
77823;BME280;67013;49.730;17.292;2023-05-10T06:57:40;98283.92;;;31.31;19.74
77823;BME280;67013;49.730;17.292;2023-05-10T07:00:11;98292.41;;;30.59;20.26
77823;BME280;67013;49.730;17.292;2023-05-10T07:02:40;98290.58;;;29.93;20.95
77823;BME280;67013;49.730;17.292;2023-05-10T07:05:10;98283.80;;;29.23;21.75
77823;BME280;67013;49.730;17.292;2023-05-10T07:07:40;98281.49;;;28.80;22.29
77823;BME280;67013;49.730;17.292;2023-05-10T07:10:11;98281.73;;;28.49;22.77
77823;BME280;67013;49.730;17.292;2023-05-10T07:12:40;98280.14;;;28.09;23.13
77823;BME280;67013;49.730;17.292;2023-05-10T07:15:11;98278.89;;;27.50;23.74
77823;BME280;67013;49.730;17.292;2023-05-10T07:17:40;98278.43;;;27.11;24.43
77823;BME280;67013;49.730;17.292;2023-05-10T07:20:12;98284.19;;;26.91;24.82
77823;BME280;67013;49.730;17.292;2023-05-10T07:22:41;98277.69;;;26.66;25.01
77823;BME280;67013;49.730;17.292;2023-05-10T07:25:11;98284.88;;;26.36;25.47
77823;BME280;67013;49.730;17.292;2023-05-10T07:27:40;98286.14;;;26.10;25.99
77823;BME280;67013;49.730;17.292;2023-05-10T07:30:12;98288.23;;;26.02;26.30
77823;BME280;67013;49.730;17.292;2023-05-10T07:32:42;98289.21;;;25.82;26.28
77823;BME280;67013;49.730;17.292;2023-05-10T07:35:11;98291.77;;;25.58;26.47
77823;BME280;67013;49.730;17.292;2023-05-10T07:37:41;98291.64;;;25.37;26.67
77823;BME280;67013;49.730;17.292;2023-05-10T07:40:11;98288.17;;;25.11;27.01
77823;BME280;67013;49.730;17.292;2023-05-10T07:42:41;98283.95;;;24.74;27.44
77823;BME280;67013;49.730;17.292;2023-05-10T07:45:11;98286.53;;;24.41;27.98
77823;BME280;67013;49.730;17.292;2023-05-10T07:47:40;98288.44;;;24.02;28.57
77823;BME280;67013;49.730;17.292;2023-05-10T07:50:10;98288.46;;;23.63;29.16
77823;BME280;67013;49.730;17.292;2023-05-10T07:52:40;98284.97;;;23.27;29.73
77823;BME280;67013;49.730;17.292;2023-05-10T07:55:11;98288.92;;;22.93;30.38
77823;BME280;67013;49.730;17.292;2023-05-10T07:57:41;98290.63;;;22.69;30.89
77823;BME280;67013;49.730;17.292;2023-05-10T08:00:14;98289.32;;;22.57;31.25
77823;BME280;67013;49.730;17.292;2023-05-10T08:02:46;98292.83;;;22.56;31.46
77823;BME280;67013;49.730;17.292;2023-05-10T08:05:16;98284.00;;;22.61;31.45
77823;BME280;67013;49.730;17.292;2023-05-10T08:07:45;98279.58;;;22.56;31.46
77823;BME280;67013;49.730;17.292;2023-05-10T08:10:15;98289.63;;;22.54;31.76
77823;BME280;67013;49.730;17.292;2023-05-10T08:12:45;98277.08;;;22.56;31.94
77823;BME280;67013;49.730;17.292;2023-05-10T08:15:14;98279.19;;;22.59;31.78
77823;BME280;67013;49.730;17.292;2023-05-10T08:17:44;98275.66;;;22.57;31.96
77823;BME280;67013;49.730;17.292;2023-05-10T08:20:13;98278.92;;;22.62;32.15
77823;BME280;67013;49.730;17.292;2023-05-10T08:22:44;98282.48;;;22.57;31.94
77823;BME280;67013;49.730;17.292;2023-05-10T08:25:14;98274.49;;;22.64;32.03
77823;BME280;67013;49.730;17.292;2023-05-10T08:27:44;98279.86;;;22.65;31.91
77823;BME280;67013;49.730;17.292;2023-05-10T08:30:14;98285.60;;;22.66;31.79
77823;BME280;67013;49.730;17.292;2023-05-10T08:32:43;98290.08;;;22.79;31.96
77823;BME280;67013;49.730;17.292;2023-05-10T08:35:13;98289.14;;;22.98;31.61
77823;BME280;67013;49.730;17.292;2023-05-10T08:37:42;98281.34;;;23.05;31.14
77823;BME280;67013;49.730;17.292;2023-05-10T08:40:13;98289.36;;;22.94;31.35
77823;BME280;67013;49.730;17.292;2023-05-10T08:42:43;98286.02;;;22.89;31.65
77823;BME280;67013;49.730;17.292;2023-05-10T08:45:14;98281.15;;;22.93;31.81
77823;BME280;67013;49.730;17.292;2023-05-10T08:47:45;98278.77;;;22.85;31.70
77823;BME280;67013;49.730;17.292;2023-05-10T08:50:16;98285.14;;;22.76;31.51
77823;BME280;67013;49.730;17.292;2023-05-10T08:52:49;98286.67;;;22.67;31.44
77823;BME280;67013;49.730;17.292;2023-05-10T08:55:22;98292.52;;;22.42;31.38
77823;BME280;67013;49.730;17.292;2023-05-10T08:57:53;98291.80;;;22.20;31.92
77823;BME280;67013;49.730;17.292;2023-05-10T09:00:23;98298.55;;;22.08;32.21
77823;BME280;67013;49.730;17.292;2023-05-10T09:02:53;98292.78;;;21.82;32.39
77823;BME280;67013;49.730;17.292;2023-05-10T09:05:22;98292.59;;;21.50;32.75
77823;BME280;67013;49.730;17.292;2023-05-10T09:07:52;98294.48;;;21.33;33.10
77823;BME280;67013;49.730;17.292;2023-05-10T09:10:22;98291.80;;;21.29;33.23
77823;BME280;67013;49.730;17.292;2023-05-10T09:12:54;98289.85;;;21.25;33.58
77823;BME280;67013;49.730;17.292;2023-05-10T09:15:25;98277.59;;;21.04;33.82
77823;BME280;67013;49.730;17.292;2023-05-10T09:17:55;98280.96;;;20.87;34.32
77823;BME280;67013;49.730;17.292;2023-05-10T09:20:27;98277.31;;;20.76;34.60
77823;BME280;67013;49.730;17.292;2023-05-10T09:22:57;98279.33;;;20.77;34.67
77823;BME280;67013;49.730;17.292;2023-05-10T09:25:26;98282.48;;;20.79;34.70
77823;BME280;67013;49.730;17.292;2023-05-10T09:27:56;98285.91;;;20.81;34.40
77823;BME280;67013;49.730;17.292;2023-05-10T09:30:27;98279.64;;;20.87;34.39
77823;BME280;67013;49.730;17.292;2023-05-10T09:32:58;98284.65;;;20.97;34.30
77823;BME280;67013;49.730;17.292;2023-05-10T09:35:29;98292.35;;;21.14;33.91
77823;BME280;67013;49.730;17.292;2023-05-10T09:38:02;98283.33;;;21.09;33.83
77823;BME280;67013;49.730;17.292;2023-05-10T09:40:33;98291.90;;;21.16;33.92
77823;BME280;67013;49.730;17.292;2023-05-10T09:43:03;98298.99;;;21.18;33.81
77823;BME280;67013;49.730;17.292;2023-05-10T09:45:35;98298.35;;;21.11;33.81
77823;BME280;67013;49.730;17.292;2023-05-10T09:48:06;98293.38;;;21.03;34.14
77823;BME280;67013;49.730;17.292;2023-05-10T09:50:35;98290.47;;;21.03;34.25
77823;BME280;67013;49.730;17.292;2023-05-10T09:53:05;98290.18;;;21.05;34.37
77823;BME280;67013;49.730;17.292;2023-05-10T09:55:42;98296.77;;;21.12;34.00
77823;BME280;67013;49.730;17.292;2023-05-10T09:58:13;98289.20;;;21.20;34.00
77823;BME280;67013;49.730;17.292;2023-05-10T10:00:44;98287.36;;;21.22;33.60
77823;BME280;67013;49.730;17.292;2023-05-10T10:03:20;98286.42;;;21.21;33.97
77823;BME280;67013;49.730;17.292;2023-05-10T10:05:50;98288.11;;;21.21;34.02
77823;BME280;67013;49.730;17.292;2023-05-10T10:08:22;98286.00;;;21.12;33.83
77823;BME280;67013;49.730;17.292;2023-05-10T10:10:52;98280.05;;;20.93;34.18
77823;BME280;67013;49.730;17.292;2023-05-10T10:13:22;98281.36;;;20.87;34.36
77823;BME280;67013;49.730;17.292;2023-05-10T10:15:52;98277.27;;;20.97;34.32
77823;BME280;67013;49.730;17.292;2023-05-10T10:18:21;98271.34;;;20.95;34.12
77823;BME280;67013;49.730;17.292;2023-05-10T10:20:55;98265.33;;;20.82;34.25
77823;BME280;67013;49.730;17.292;2023-05-10T10:23:26;98267.92;;;20.69;34.62
77823;BME280;67013;49.730;17.292;2023-05-10T10:25:56;98269.42;;;20.73;34.52
77823;BME280;67013;49.730;17.292;2023-05-10T10:28:35;98267.70;;;20.87;34.02
77823;BME280;67013;49.730;17.292;2023-05-10T10:31:21;98276.20;;;21.01;33.61
77823;BME280;67013;49.730;17.292;2023-05-10T10:34:03;98274.28;;;21.14;33.57
77823;BME280;67013;49.730;17.292;2023-05-10T10:36:34;98277.80;;;21.26;33.24
77823;BME280;67013;49.730;17.292;2023-05-10T10:39:11;98273.27;;;21.32;33.20
77823;BME280;67013;49.730;17.292;2023-05-10T10:41:49;98263.89;;;21.20;33.30
77823;BME280;67013;49.730;17.292;2023-05-10T10:44:36;98253.91;;;21.05;33.40
77823;BME280;67013;49.730;17.292;2023-05-10T10:47:22;98255.39;;;20.93;33.67
77823;BME280;67013;49.730;17.292;2023-05-10T10:50:05;98258.95;;;20.91;33.40
77823;BME280;67013;49.730;17.292;2023-05-10T10:52:36;98255.72;;;20.85;33.25
77823;BME280;67013;49.730;17.292;2023-05-10T10:55:07;98253.45;;;20.91;33.24
77823;BME280;67013;49.730;17.292;2023-05-10T10:57:46;98244.48;;;20.95;33.47
77823;BME280;67013;49.730;17.292;2023-05-10T11:00:28;98251.09;;;21.05;33.49
77823;BME280;67013;49.730;17.292;2023-05-10T11:03:05;98244.95;;;21.15;33.03
77823;BME280;67013;49.730;17.292;2023-05-10T11:05:40;98262.90;;;21.14;32.67
77823;BME280;67013;49.730;17.292;2023-05-10T11:08:12;98252.99;;;21.04;32.94
77823;BME280;67013;49.730;17.292;2023-05-10T11:10:51;98245.23;;;20.98;33.13
77823;BME280;67013;49.730;17.292;2023-05-10T11:13:30;98239.90;;;20.83;33.49
77823;BME280;67013;49.730;17.292;2023-05-10T11:16:09;98241.52;;;20.80;33.57
77823;BME280;67013;49.730;17.292;2023-05-10T11:18:39;98237.56;;;20.81;33.61
77823;BME280;67013;49.730;17.292;2023-05-10T11:21:10;98238.40;;;20.88;33.71
77823;BME280;67013;49.730;17.292;2023-05-10T11:23:52;98241.23;;;21.00;33.55
77823;BME280;67013;49.730;17.292;2023-05-10T11:26:25;98238.57;;;21.19;33.12
77823;BME280;67013;49.730;17.292;2023-05-10T11:28:55;98245.66;;;21.26;32.69
77823;BME280;67013;49.730;17.292;2023-05-10T11:31:26;98233.99;;;21.13;32.46
77823;BME280;67013;49.730;17.292;2023-05-10T11:33:57;98243.84;;;21.19;32.86
77823;BME280;67013;49.730;17.292;2023-05-10T11:36:28;98243.71;;;21.29;32.71
77823;BME280;67013;49.730;17.292;2023-05-10T11:38:59;98235.30;;;21.37;32.70
77823;BME280;67013;49.730;17.292;2023-05-10T11:41:29;98232.41;;;21.46;32.64
77823;BME280;67013;49.730;17.292;2023-05-10T11:43:59;98234.34;;;21.55;32.66
77823;BME280;67013;49.730;17.292;2023-05-10T11:46:29;98240.11;;;21.56;32.49
77823;BME280;67013;49.730;17.292;2023-05-10T11:49:00;98240.48;;;21.58;32.38
77823;BME280;67013;49.730;17.292;2023-05-10T11:51:34;98241.33;;;21.67;31.73
77823;BME280;67013;49.730;17.292;2023-05-10T11:54:07;98240.80;;;21.72;31.40
77823;BME280;67013;49.730;17.292;2023-05-10T11:56:37;98238.91;;;21.78;31.64
77823;BME280;67013;49.730;17.292;2023-05-10T11:59:07;98242.65;;;21.82;32.27
77823;BME280;67013;49.730;17.292;2023-05-10T12:01:37;98242.15;;;21.77;32.06
77823;BME280;67013;49.730;17.292;2023-05-10T12:04:07;98248.91;;;21.66;31.75
77823;BME280;67013;49.730;17.292;2023-05-10T12:06:41;98247.83;;;21.58;31.24
77823;BME280;67013;49.730;17.292;2023-05-10T12:09:10;98240.30;;;21.38;31.48
77823;BME280;67013;49.730;17.292;2023-05-10T12:11:41;98246.26;;;21.27;31.97
77823;BME280;67013;49.730;17.292;2023-05-10T12:14:10;98241.68;;;21.25;32.48
77823;BME280;67013;49.730;17.292;2023-05-10T12:16:40;98243.72;;;21.32;32.79
77823;BME280;67013;49.730;17.292;2023-05-10T12:19:09;98257.77;;;21.34;32.14
77823;BME280;67013;49.730;17.292;2023-05-10T12:21:39;98248.30;;;21.28;32.32
77823;BME280;67013;49.730;17.292;2023-05-10T12:24:09;98250.95;;;21.12;32.55
77823;BME280;67013;49.730;17.292;2023-05-10T12:26:39;98247.88;;;21.08;32.91
77823;BME280;67013;49.730;17.292;2023-05-10T12:29:15;98252.97;;;21.04;32.95
77823;BME280;67013;49.730;17.292;2023-05-10T12:31:53;98248.13;;;20.93;32.27
77823;BME280;67013;49.730;17.292;2023-05-10T12:34:34;98244.58;;;20.80;32.81
77823;BME280;67013;49.730;17.292;2023-05-10T12:37:04;98248.90;;;20.67;33.27
77823;BME280;67013;49.730;17.292;2023-05-10T12:39:42;98242.88;;;20.57;33.22
77823;BME280;67013;49.730;17.292;2023-05-10T12:42:12;98245.83;;;20.38;33.36
77823;BME280;67013;49.730;17.292;2023-05-10T12:44:41;98239.82;;;20.19;33.14
77823;BME280;67013;49.730;17.292;2023-05-10T12:47:10;98244.45;;;20.04;33.53
77823;BME280;67013;49.730;17.292;2023-05-10T12:49:40;98231.63;;;20.02;33.91
77823;BME280;67013;49.730;17.292;2023-05-10T12:52:10;98237.66;;;20.04;33.79
77823;BME280;67013;49.730;17.292;2023-05-10T12:54:39;98235.16;;;20.01;33.44
77823;BME280;67013;49.730;17.292;2023-05-10T12:57:09;98225.79;;;19.96;33.66
77823;BME280;67013;49.730;17.292;2023-05-10T12:59:38;98238.30;;;19.95;34.23
77823;BME280;67013;49.730;17.292;2023-05-10T13:02:08;98230.55;;;19.99;34.02
77823;BME280;67013;49.730;17.292;2023-05-10T13:04:38;98219.02;;;20.04;34.19
77823;BME280;67013;49.730;17.292;2023-05-10T13:07:08;98224.29;;;20.14;34.45
77823;BME280;67013;49.730;17.292;2023-05-10T13:09:37;98224.98;;;20.26;34.51
77823;BME280;67013;49.730;17.292;2023-05-10T13:12:07;98224.99;;;20.37;34.31